createdAt,value
2018-03-08T00:00:16.242Z,100737.28
2018-03-08T00:03:19.617Z,100729.14
2018-03-08T00:06:23.186Z,100738.59
2018-03-08T00:09:26.534Z,100737.24
2018-03-08T00:12:29.915Z,100741.51
2018-03-08T00:15:33.295Z,100744.72
2018-03-08T00:18:36.878Z,100744.76
2018-03-08T00:21:40.140Z,100754.07
2018-03-08T00:24:44.129Z,100753.59
2018-03-08T00:27:47.397Z,100755.59
2018-03-08T00:30:50.602Z,100758.90
2018-03-08T00:33:53.850Z,100765.33
2018-03-08T00:36:57.100Z,100764.14
2018-03-08T00:40:00.273Z,100766.05
2018-03-08T00:43:03.659Z,100771.79
2018-03-08T00:46:07.144Z,100782.22
2018-03-08T00:49:10.424Z,100774.93
2018-03-08T00:52:13.706Z,100779.21
2018-03-08T00:55:16.954Z,100776.06
2018-03-08T00:58:20.262Z,100781.72
2018-03-08T01:01:23.554Z,100783.53
2018-03-08T01:04:27.242Z,100788.10
2018-03-08T01:07:30.796Z,100797.30
2018-03-08T01:10:34.370Z,100797.39
2018-03-08T01:13:37.585Z,100795.05
2018-03-08T01:16:41.654Z,100799.15
2018-03-08T01:19:45.189Z,100802.03
2018-03-08T01:22:48.543Z,100800.40
2018-03-08T01:25:51.882Z,100803.65
2018-03-08T01:28:55.143Z,100800.29
2018-03-08T01:35:07.234Z,100803.94
2018-03-08T01:38:10.488Z,100809.49
2018-03-08T01:41:14.554Z,100809.63
2018-03-08T01:44:18.009Z,100807.40
2018-03-08T01:47:21.232Z,100809.72
2018-03-08T01:50:24.441Z,100814.94
2018-03-08T01:53:27.624Z,100817.15
2018-03-08T01:56:30.862Z,100811.68
2018-03-08T01:59:35.277Z,100811.96
2018-03-08T02:02:38.932Z,100812.15
2018-03-08T02:05:42.230Z,100813.39
2018-03-08T02:08:45.591Z,100821.27
2018-03-08T02:11:48.844Z,100823.24
2018-03-08T02:14:52.079Z,100831.38
2018-03-08T02:17:55.335Z,100835.37
2018-03-08T02:20:58.781Z,100835.74
2018-03-08T02:24:01.983Z,100839.97
2018-03-08T02:27:05.183Z,100844.09
2018-03-08T02:30:08.358Z,100840.32
2018-03-08T02:33:11.532Z,100842.73
2018-03-08T02:36:14.775Z,100844.87
2018-03-08T02:39:18.984Z,100845.32
2018-03-08T02:42:22.295Z,100850.32
2018-03-08T02:45:25.584Z,100859.70
2018-03-08T02:48:29.055Z,100862.00
2018-03-08T02:51:32.370Z,100860.80
2018-03-08T02:54:35.668Z,100870.87
2018-03-08T02:57:38.910Z,100869.05
2018-03-08T03:00:42.068Z,100871.11
2018-03-08T03:03:45.275Z,100870.96
2018-03-08T03:06:48.446Z,100870.38
2018-03-08T03:09:51.680Z,100869.38
2018-03-08T03:12:54.771Z,100877.45
2018-03-08T03:15:58.044Z,100873.39
2018-03-08T03:19:01.238Z,100876.13
2018-03-08T03:22:04.492Z,100877.06
2018-03-08T03:25:07.700Z,100878.10
2018-03-08T03:28:10.923Z,100882.30
2018-03-08T03:31:14.182Z,100877.32
2018-03-08T03:34:17.411Z,100883.13
2018-03-08T03:37:20.560Z,100880.18
2018-03-08T03:40:23.818Z,100878.95
2018-03-08T03:43:26.996Z,100875.34
2018-03-08T03:46:30.193Z,100876.84
2018-03-08T03:49:33.405Z,100872.95
2018-03-08T03:52:36.686Z,100883.10
2018-03-08T03:55:39.866Z,100883.12
2018-03-08T03:58:43.478Z,100888.82
2018-03-08T04:01:46.727Z,100891.31
2018-03-08T04:04:49.883Z,100893.98
2018-03-08T04:07:53.073Z,100893.84
2018-03-08T04:10:56.924Z,100900.24
2018-03-08T04:14:00.215Z,100895.90
2018-03-08T04:17:03.414Z,100901.62
2018-03-08T04:20:06.591Z,100903.45
2018-03-08T04:23:09.898Z,100909.48
2018-03-08T04:26:13.222Z,100902.91
2018-03-08T04:29:16.522Z,100907.16
2018-03-08T04:32:19.675Z,100909.42
2018-03-08T04:35:22.804Z,100905.74
2018-03-08T04:38:26.049Z,100908.68
2018-03-08T04:41:29.238Z,100901.94
2018-03-08T04:44:32.429Z,100908.12
2018-03-08T04:47:35.631Z,100906.50
2018-03-08T04:50:38.842Z,100901.30
2018-03-08T04:53:42.014Z,100904.41
2018-03-08T04:56:45.264Z,100896.62
2018-03-08T04:59:48.416Z,100894.82
2018-03-08T05:02:51.709Z,100902.38
2018-03-08T05:05:54.827Z,100897.17
2018-03-08T05:08:58.005Z,100906.57
2018-03-08T05:12:01.187Z,100909.66
2018-03-08T05:15:04.377Z,100910.16
2018-03-08T05:18:07.532Z,100914.67
2018-03-08T05:21:10.795Z,100920.41
2018-03-08T05:24:14.006Z,100923.85
2018-03-08T05:27:17.211Z,100927.98
2018-03-08T05:30:20.529Z,100930.30
2018-03-08T05:33:23.771Z,100936.02
2018-03-08T05:36:27.303Z,100934.43
2018-03-08T05:39:30.460Z,100940.72
2018-03-08T05:42:33.654Z,100940.26
2018-03-08T05:45:36.815Z,100946.75
2018-03-08T05:48:40.219Z,100951.62
2018-03-08T05:51:43.383Z,100960.99
2018-03-08T05:54:46.641Z,100958.09
2018-03-08T05:57:49.835Z,100956.71
2018-03-08T06:00:53.122Z,100960.03
2018-03-08T06:03:56.343Z,100963.06
2018-03-08T06:06:59.507Z,100964.76
2018-03-08T06:10:02.670Z,100967.02
2018-03-08T06:13:05.835Z,100966.09
2018-03-08T06:16:09.099Z,100969.09
2018-03-08T06:19:12.292Z,100970.74
2018-03-08T06:22:15.726Z,100968.70
2018-03-08T06:25:19.015Z,100978.40
2018-03-08T06:28:22.230Z,100971.47
2018-03-08T06:31:25.505Z,100972.45
2018-03-08T06:34:28.698Z,100973.67
2018-03-08T06:37:31.847Z,100962.30
2018-03-08T06:40:35.091Z,100966.22
2018-03-08T06:43:38.267Z,100969.67
2018-03-08T06:46:41.478Z,100975.48
2018-03-08T06:49:44.781Z,100979.98
2018-03-08T06:52:47.971Z,100980.05
2018-03-08T06:55:51.164Z,100984.90
2018-03-08T06:58:54.362Z,100986.83
2018-03-08T07:01:57.558Z,100990.69
2018-03-08T07:05:00.768Z,100992.19
2018-03-08T07:08:03.955Z,100993.61
2018-03-08T07:11:07.207Z,100989.07
2018-03-08T07:14:10.646Z,100989.55
2018-03-08T07:17:14.052Z,100991.20
2018-03-08T07:20:17.412Z,100992.85
2018-03-08T07:23:20.641Z,100989.80
2018-03-08T07:26:23.838Z,100994.77
2018-03-08T07:29:27.035Z,100998.13
2018-03-08T07:32:30.233Z,100996.69
2018-03-08T07:35:33.634Z,101005.03
2018-03-08T07:38:36.818Z,100998.15
2018-03-08T07:41:40.008Z,101003.65
2018-03-08T07:44:43.319Z,101000.33
2018-03-08T07:47:47.019Z,101006.14
2018-03-08T07:50:50.224Z,101007.49
2018-03-08T07:53:53.428Z,101007.72
2018-03-08T07:56:56.586Z,101002.88
2018-03-08T07:59:59.816Z,101004.66
2018-03-08T08:03:02.981Z,101006.68
2018-03-08T08:07:20.289Z,100996.46
2018-03-08T08:10:23.537Z,101002.84
2018-03-08T08:13:26.739Z,101000.04
2018-03-08T08:16:29.942Z,101001.05
2018-03-08T08:19:33.110Z,101000.74
2018-03-08T08:22:36.409Z,101003.10
2018-03-08T08:25:39.624Z,100999.04
2018-03-08T08:28:42.902Z,100997.81
2018-03-08T08:31:46.092Z,101000.14
2018-03-08T08:34:55.168Z,101000.46
2018-03-08T08:37:58.309Z,101002.94
2018-03-08T08:41:01.542Z,100999.94
2018-03-08T08:44:04.819Z,100995.96
2018-03-08T08:47:08.158Z,100993.52
2018-03-08T08:50:11.362Z,100990.06
2018-03-08T08:53:14.674Z,100986.46
2018-03-08T08:56:17.908Z,100989.79
2018-03-08T08:59:21.089Z,100990.72
2018-03-08T09:02:24.254Z,100996.39
2018-03-08T09:05:27.427Z,100984.25
2018-03-08T09:08:30.625Z,100989.94
2018-03-08T09:11:33.791Z,100987.47
2018-03-08T09:14:36.968Z,100984.59
2018-03-08T09:17:40.135Z,100988.46
2018-03-08T09:20:43.373Z,100985.69
2018-03-08T09:23:46.765Z,100979.09
2018-03-08T09:26:49.963Z,100975.89
2018-03-08T09:29:53.181Z,100971.19
2018-03-08T09:32:56.350Z,100975.86
2018-03-08T09:35:59.658Z,100972.47
2018-03-08T09:39:02.887Z,100964.19
2018-03-08T09:42:06.148Z,100964.34
2018-03-08T09:45:09.340Z,100961.09
2018-03-08T09:48:12.529Z,100957.38
2018-03-08T09:51:15.820Z,100954.45
2018-03-08T09:54:18.991Z,100948.61
2018-03-08T09:57:22.178Z,100933.74
2018-03-08T10:00:25.319Z,100926.52
2018-03-08T10:03:28.512Z,100923.86
2018-03-08T10:06:31.679Z,100921.75
2018-03-08T10:09:35.007Z,100920.97
2018-03-08T10:12:38.190Z,100917.99
2018-03-08T10:15:41.389Z,100918.60
2018-03-08T10:18:44.756Z,100913.64
2018-03-08T10:21:47.990Z,100913.22
2018-03-08T10:24:51.166Z,100912.32
2018-03-08T10:27:54.369Z,100913.31
2018-03-08T10:30:57.527Z,100910.81
2018-03-08T10:34:00.722Z,100904.22
2018-03-08T10:37:03.882Z,100907.13
2018-03-08T10:40:07.053Z,100899.94
2018-03-08T10:43:10.239Z,100895.26
2018-03-08T10:46:13.454Z,100893.18
2018-03-08T10:49:16.790Z,100897.19
2018-03-08T10:52:20.030Z,100891.86
2018-03-08T10:55:23.330Z,100891.31
2018-03-08T10:58:26.518Z,100889.60
2018-03-08T11:01:33.598Z,100885.91
2018-03-08T11:04:36.810Z,100884.58
2018-03-08T11:07:40.250Z,100879.73
2018-03-08T11:10:43.573Z,100873.38
2018-03-08T11:13:46.908Z,100871.07
2018-03-08T11:16:50.111Z,100867.54
2018-03-08T11:19:53.665Z,100870.20
2018-03-08T11:22:56.913Z,100863.79
2018-03-08T11:26:00.119Z,100860.47
2018-03-08T11:29:03.292Z,100863.77
2018-03-08T11:32:06.460Z,100864.10
2018-03-08T11:35:09.698Z,100861.46
2018-03-08T11:38:14.021Z,100855.49
2018-03-08T11:41:16.296Z,100853.00
2018-03-08T11:44:19.764Z,100843.21
2018-03-08T11:47:24.671Z,100847.99
2018-03-08T11:50:26.583Z,100842.11
2018-03-08T11:53:29.757Z,100841.33
2018-03-08T11:56:32.940Z,100833.13
2018-03-08T11:59:36.194Z,100821.47
2018-03-08T12:02:39.355Z,100814.95
2018-03-08T12:05:42.637Z,100803.72
2018-03-08T12:08:45.899Z,100795.41
2018-03-08T12:11:49.069Z,100790.88
2018-03-08T12:14:52.244Z,100786.32
2018-03-08T12:17:55.619Z,100793.81
2018-03-08T12:20:58.847Z,100789.22
2018-03-08T12:24:02.147Z,100794.36
2018-03-08T12:27:05.389Z,100782.85
2018-03-08T12:30:08.598Z,100774.27
2018-03-08T12:33:11.926Z,100770.60
2018-03-08T12:39:23.843Z,100759.70
2018-03-08T12:42:27.143Z,100758.56
2018-03-08T12:45:30.434Z,100751.11
2018-03-08T12:48:33.738Z,100741.96
2018-03-08T12:51:37.039Z,100733.72
2018-03-08T12:54:40.336Z,100732.03
2018-03-08T12:57:43.572Z,100729.31
2018-03-08T13:00:46.992Z,100721.84
2018-03-08T13:03:50.214Z,100709.66
2018-03-08T13:06:53.523Z,100709.64
2018-03-08T13:09:56.707Z,100692.96
2018-03-08T13:12:59.880Z,100683.56
2018-03-08T13:16:03.106Z,100681.25
2018-03-08T13:19:06.365Z,100679.23
2018-03-08T13:22:09.636Z,100680.83
2018-03-08T13:25:12.799Z,100673.60
2018-03-08T13:28:16.118Z,100672.24
2018-03-08T13:31:20.218Z,100664.36
2018-03-08T13:34:23.523Z,100667.34
2018-03-08T13:37:26.857Z,100659.91
2018-03-08T13:40:30.073Z,100662.92
2018-03-08T13:43:33.327Z,100654.75
2018-03-08T13:46:36.610Z,100653.01
2018-03-08T13:49:39.858Z,100644.27
2018-03-08T13:52:43.028Z,100643.12
2018-03-08T13:55:46.385Z,100632.49
2018-03-08T13:58:50.150Z,100626.54
2018-03-08T14:01:53.365Z,100622.48
2018-03-08T14:04:56.656Z,100623.68
2018-03-08T14:07:59.888Z,100616.71
2018-03-08T14:11:03.130Z,100595.73
2018-03-08T14:14:06.650Z,100599.01
2018-03-08T14:17:09.879Z,100602.05
2018-03-08T14:20:13.217Z,100589.82
2018-03-08T14:23:16.491Z,100586.48
2018-03-08T14:26:19.726Z,100576.39
2018-03-08T14:29:22.942Z,100587.22
2018-03-08T14:32:28.074Z,100579.01
2018-03-08T14:35:32.911Z,100578.69
2018-03-08T14:38:36.191Z,100582.01
2018-03-08T14:41:40.155Z,100574.03
2018-03-08T14:44:43.456Z,100568.04
2018-03-08T14:47:46.826Z,100564.45
2018-03-08T14:50:50.091Z,100559.47
2018-03-08T14:53:53.388Z,100559.94
2018-03-08T14:56:56.649Z,100556.22
2018-03-08T14:59:59.935Z,100549.95
2018-03-08T15:03:03.200Z,100541.89
2018-03-08T15:06:06.439Z,100534.11
2018-03-08T15:09:09.725Z,100545.59
2018-03-08T15:12:13.057Z,100539.80
2018-03-08T15:15:16.424Z,100537.76
2018-03-08T15:18:19.925Z,100529.06
2018-03-08T15:21:23.187Z,100532.67
2018-03-08T15:24:27.411Z,100521.95
2018-03-08T15:27:30.680Z,100516.03
2018-03-08T15:30:33.951Z,100518.31
2018-03-08T15:33:37.891Z,100510.25
2018-03-08T15:36:41.259Z,100509.69
2018-03-08T15:39:44.922Z,100508.60
2018-03-08T15:42:48.265Z,100507.74
2018-03-08T15:45:51.733Z,100505.73
2018-03-08T15:48:55.138Z,100509.25
2018-03-08T15:51:58.435Z,100502.53
2018-03-08T15:55:01.835Z,100498.38
2018-03-08T15:58:05.668Z,100500.67
2018-03-08T16:01:09.106Z,100499.38
2018-03-08T16:04:13.525Z,100502.88
2018-03-08T16:07:24.943Z,100498.42
2018-03-08T16:10:34.391Z,100494.98
2018-03-08T16:13:38.200Z,100501.99
2018-03-08T16:16:41.439Z,100505.32
2018-03-08T16:19:45.607Z,100505.28
2018-03-08T16:22:48.835Z,100509.55
2018-03-08T16:25:52.190Z,100504.78
2018-03-08T16:28:55.464Z,100513.16
2018-03-08T16:31:58.763Z,100507.73
2018-03-08T16:35:02.058Z,100495.68
2018-03-08T16:38:05.476Z,100489.09
2018-03-08T16:41:08.807Z,100484.68
2018-03-08T16:44:12.294Z,100477.37
2018-03-08T16:47:15.895Z,100489.58
2018-03-08T16:50:19.253Z,100490.35
2018-03-08T16:53:22.582Z,100484.80
2018-03-08T16:56:25.850Z,100488.07
2018-03-08T16:59:29.289Z,100488.64
2018-03-08T17:02:33.107Z,100491.36
2018-03-08T17:05:36.468Z,100490.16
2018-03-08T17:08:40.096Z,100490.92
2018-03-08T17:11:43.297Z,100481.37
2018-03-08T17:14:46.653Z,100483.19
2018-03-08T17:17:50.304Z,100488.11
2018-03-08T17:20:53.598Z,100491.40
2018-03-08T17:23:57.094Z,100492.55
2018-03-08T17:27:00.682Z,100496.30
2018-03-08T17:30:04.112Z,100497.91
2018-03-08T17:33:07.504Z,100506.28
2018-03-08T17:36:10.864Z,100523.49
2018-03-08T17:39:15.262Z,100531.86
2018-03-08T17:42:18.575Z,100542.91
2018-03-08T17:45:22.102Z,100546.31
2018-03-08T17:48:25.570Z,100548.65
2018-03-08T17:51:28.889Z,100555.41
2018-03-08T17:54:32.230Z,100551.62
2018-03-08T17:57:36.483Z,100552.66
2018-03-08T18:00:39.893Z,100549.07
2018-03-08T18:03:43.066Z,100546.55
2018-03-08T18:06:46.307Z,100547.65
2018-03-08T18:09:49.539Z,100550.40
2018-03-08T18:12:52.712Z,100555.13
2018-03-08T18:15:56.095Z,100564.31
2018-03-08T18:18:59.392Z,100569.00
2018-03-08T18:22:02.565Z,100570.31
2018-03-08T18:25:05.751Z,100567.84
2018-03-08T18:28:08.973Z,100566.53
2018-03-08T18:31:12.236Z,100570.31
2018-03-08T18:34:15.449Z,100576.03
2018-03-08T18:37:18.685Z,100583.00
2018-03-08T18:40:21.902Z,100582.11
2018-03-08T18:43:25.075Z,100585.78
2018-03-08T18:46:28.275Z,100592.73
2018-03-08T18:49:31.450Z,100597.23
2018-03-08T18:52:34.658Z,100605.75
2018-03-08T18:55:37.834Z,100606.01
2018-03-08T18:59:44.640Z,100611.18
2018-03-08T19:02:47.810Z,100616.45
2018-03-08T19:05:51.051Z,100619.05
2018-03-08T19:08:54.225Z,100627.84
2018-03-08T19:11:57.385Z,100631.56
2018-03-08T19:15:03.402Z,100636.93
2018-03-08T19:18:06.884Z,100640.52
2018-03-08T19:21:10.310Z,100651.74
2018-03-08T19:24:13.723Z,100660.28
2018-03-08T19:27:17.285Z,100667.60
2018-03-08T19:30:20.692Z,100673.62
2018-03-08T19:33:24.160Z,100677.01
2018-03-08T19:36:27.592Z,100683.65
2018-03-08T19:39:30.893Z,100686.36
2018-03-08T19:42:34.307Z,100693.58
2018-03-08T19:45:37.707Z,100707.73
2018-03-08T19:48:42.966Z,100728.86
2018-03-08T19:51:46.698Z,100745.24
2018-03-08T19:54:49.936Z,100745.23
2018-03-08T19:57:53.195Z,100745.91
2018-03-08T20:00:56.523Z,100757.03
2018-03-08T20:03:59.804Z,100765.01
2018-03-08T20:07:03.050Z,100777.15
2018-03-08T20:10:06.345Z,100782.18
2018-03-08T20:13:09.614Z,100805.01
2018-03-08T20:16:14.032Z,100804.49
2018-03-08T20:19:17.295Z,100818.93
2018-03-08T20:22:20.524Z,100829.88
2018-03-08T20:25:23.746Z,100842.32
2018-03-08T20:28:27.016Z,100859.90
2018-03-08T20:31:30.294Z,100853.35
2018-03-08T20:34:34.603Z,100861.45
2018-03-08T20:37:37.906Z,100887.95
2018-03-08T20:40:42.252Z,100932.82
2018-03-08T20:43:45.527Z,100948.83
2018-03-08T20:46:48.845Z,100948.41
2018-03-08T20:49:52.091Z,100952.48
2018-03-08T20:52:55.403Z,100985.90
2018-03-08T20:55:58.745Z,100976.12
2018-03-08T20:59:01.972Z,100988.58
2018-03-08T21:02:05.252Z,101000.52
2018-03-08T21:05:08.536Z,100996.98
2018-03-08T21:08:11.807Z,101030.61
2018-03-08T21:11:15.263Z,101010.97
2018-03-08T21:14:18.451Z,101042.42
2018-03-08T21:17:22.933Z,101040.28
2018-03-08T21:20:26.216Z,101052.33
2018-03-08T21:23:29.490Z,101046.11
2018-03-08T21:26:32.748Z,101044.37
2018-03-08T21:29:36.012Z,101054.18
2018-03-08T21:32:39.323Z,101040.78
2018-03-08T21:35:42.657Z,101045.14
2018-03-08T21:38:45.876Z,101048.28
2018-03-08T21:41:49.788Z,101060.03
2018-03-08T21:44:53.047Z,101064.07
2018-03-08T21:47:56.312Z,101078.82
2018-03-08T21:51:00.660Z,101088.02
2018-03-08T21:54:03.959Z,101085.30
2018-03-08T21:57:07.239Z,101098.55
2018-03-08T22:00:10.673Z,101106.00
2018-03-08T22:03:13.857Z,101095.10
2018-03-08T22:06:17.886Z,101102.19
2018-03-08T22:09:21.147Z,101105.46
2018-03-08T22:12:24.439Z,101103.82
2018-03-08T22:15:27.731Z,101086.39
2018-03-08T22:18:31.103Z,101099.98
2018-03-08T22:21:34.268Z,101104.52
2018-03-08T22:24:37.452Z,101111.94
2018-03-08T22:27:40.660Z,101121.71
2018-03-08T22:30:43.912Z,101122.90
2018-03-08T22:33:47.232Z,101111.63
2018-03-08T22:36:50.682Z,101114.50
2018-03-08T22:39:53.909Z,101105.92
2018-03-08T22:42:57.212Z,101105.67
2018-03-08T22:46:00.573Z,101095.97
2018-03-08T22:49:03.743Z,101110.86
2018-03-08T22:52:06.989Z,101107.21
2018-03-08T22:55:10.304Z,101119.05
2018-03-08T22:58:13.603Z,101124.25
2018-03-08T23:01:24.516Z,101113.60
2018-03-08T23:04:27.684Z,101120.30
2018-03-08T23:07:30.897Z,101127.91
2018-03-08T23:10:34.295Z,101133.92
2018-03-08T23:13:37.690Z,101140.42
2018-03-08T23:16:41.227Z,101142.13
2018-03-08T23:19:44.612Z,101137.90
2018-03-08T23:22:48.084Z,101146.96
2018-03-08T23:25:51.504Z,101151.51
2018-03-08T23:28:54.856Z,101148.53
2018-03-08T23:31:58.177Z,101148.07
2018-03-08T23:35:01.472Z,101151.35
2018-03-08T23:38:05.654Z,101139.13
2018-03-08T23:41:09.894Z,101136.56
2018-03-08T23:44:13.214Z,101138.50
2018-03-08T23:47:16.607Z,101148.51
2018-03-08T23:50:20.416Z,101155.07
2018-03-08T23:53:23.757Z,101166.35
2018-03-08T23:56:27.351Z,101188.27
2018-03-08T23:59:30.697Z,101146.96
